Terminal Aerodrome Forecast
Issued by NWS Cleveland, OH

Home | Current Version | Previous Version | Graphics & Text | Print | Product List | Glossary On
Versions: 1 2 3 4 5 6 7 8 9 10 11 12 13 14 15 16 17 18
326
FTUS41 KCLE 221618 AAA
TAFERI
TAF AMD
KERI 221618Z 2216/2312 25012G18KT P6SM OVC015
     FM221800 25012G20KT P6SM SCT015 BKN040
     FM222300 24006KT P6SM SCT250=

USA.gov is the U.S. government's official web portal to all federal, state and local government web resources and services.